createdAt,value
2023-04-19T00:01:52.348Z,11.40
2023-04-19T00:04:21.622Z,11.32
2023-04-19T00:06:52.186Z,11.26
2023-04-19T00:09:22.540Z,11.12
2023-04-19T00:11:52.853Z,10.95
2023-04-19T00:14:23.742Z,10.86
2023-04-19T00:16:53.516Z,10.77
2023-04-19T00:19:23.492Z,10.69
2023-04-19T00:21:52.659Z,10.64
2023-04-19T00:24:20.866Z,10.64
2023-04-19T00:26:49.032Z,10.62
2023-04-19T00:29:18.532Z,10.61
2023-04-19T00:31:47.327Z,10.61
2023-04-19T00:34:15.899Z,10.61
2023-04-19T00:36:44.427Z,10.61
2023-04-19T00:39:15.668Z,10.62
2023-04-19T00:41:43.858Z,10.61
2023-04-19T00:44:14.762Z,10.58
2023-04-19T00:46:46.734Z,10.56
2023-04-19T00:49:18.549Z,10.51
2023-04-19T00:51:47.782Z,10.49
2023-04-19T00:54:17.714Z,10.48
2023-04-19T00:56:48.630Z,10.47
2023-04-19T00:59:18.699Z,10.46
2023-04-19T01:01:52.076Z,10.46
2023-04-19T01:04:22.769Z,10.44
2023-04-19T01:06:54.291Z,10.42
2023-04-19T01:09:24.797Z,10.41
2023-04-19T01:11:54.353Z,10.41
2023-04-19T01:14:24.588Z,10.43
2023-04-19T01:16:55.069Z,10.46
2023-04-19T01:19:23.388Z,10.48
2023-04-19T01:21:53.016Z,10.49
2023-04-19T01:24:21.229Z,10.50
2023-04-19T01:26:51.561Z,10.50
2023-04-19T01:29:22.447Z,10.48
2023-04-19T01:31:54.190Z,10.48
2023-04-19T01:34:23.531Z,10.46
2023-04-19T01:36:52.563Z,10.43
2023-04-19T01:39:22.403Z,10.39
2023-04-19T01:41:50.782Z,10.33
2023-04-19T01:44:19.614Z,10.30
2023-04-19T01:46:50.248Z,10.28
2023-04-19T01:49:20.557Z,10.24
2023-04-19T01:51:50.359Z,10.18
2023-04-19T01:54:19.022Z,10.12
2023-04-19T01:56:50.441Z,10.09
2023-04-19T01:59:18.757Z,10.05
2023-04-19T02:01:47.994Z,10.02
2023-04-19T02:04:16.636Z,10.00
2023-04-19T02:06:45.478Z,9.98
2023-04-19T02:09:14.912Z,9.95
2023-04-19T02:11:44.512Z,9.92
2023-04-19T02:14:18.211Z,9.89
2023-04-19T02:16:47.912Z,9.84
2023-04-19T02:19:16.400Z,9.77
2023-04-19T02:21:44.757Z,9.74
2023-04-19T02:24:18.138Z,9.72
2023-04-19T02:26:46.373Z,9.70
2023-04-19T02:29:21.268Z,9.69
2023-04-19T02:31:50.532Z,9.70
2023-04-19T02:34:28.996Z,9.71
2023-04-19T02:36:58.394Z,9.68
2023-04-19T02:39:27.345Z,9.67
2023-04-19T02:41:56.177Z,9.69
2023-04-19T02:44:24.928Z,9.69
2023-04-19T02:46:53.354Z,9.70
2023-04-19T02:49:22.648Z,9.73
2023-04-19T02:51:55.511Z,9.74
2023-04-19T02:54:26.962Z,9.75
2023-04-19T02:56:55.298Z,9.74
2023-04-19T02:59:23.709Z,9.73
2023-04-19T03:01:52.030Z,9.71
2023-04-19T03:04:23.094Z,9.70
2023-04-19T03:06:52.410Z,9.70
2023-04-19T03:09:23.096Z,9.69
2023-04-19T03:11:54.117Z,9.68
2023-04-19T03:14:23.458Z,9.69
2023-04-19T03:16:56.810Z,9.71
2023-04-19T03:19:25.182Z,9.73
2023-04-19T03:21:54.714Z,9.74
2023-04-19T03:24:32.751Z,9.81
2023-04-19T03:27:09.789Z,9.91
2023-04-19T03:29:38.071Z,9.96
2023-04-19T03:32:12.763Z,10.02
2023-04-19T03:34:41.443Z,10.06
2023-04-19T03:37:10.846Z,10.14
2023-04-19T03:39:39.546Z,10.22
2023-04-19T03:42:09.309Z,10.27
2023-04-19T03:45:10.894Z,10.35
2023-04-19T03:47:42.488Z,10.39
2023-04-19T03:50:11.555Z,10.44
2023-04-19T03:52:40.584Z,10.48
2023-04-19T03:55:12.489Z,10.53
2023-04-19T03:57:41.761Z,10.58
2023-04-19T04:00:16.951Z,10.61
2023-04-19T04:02:48.027Z,10.60
2023-04-19T04:05:16.697Z,10.61
2023-04-19T04:07:46.207Z,10.68
2023-04-19T04:10:14.900Z,10.73
2023-04-19T04:12:44.510Z,10.78
2023-04-19T04:15:16.450Z,10.82
2023-04-19T04:17:48.660Z,10.84
2023-04-19T04:20:17.681Z,10.87
2023-04-19T04:22:48.298Z,10.92
2023-04-19T04:25:19.162Z,10.96
2023-04-19T04:27:52.142Z,10.98
2023-04-19T04:30:21.947Z,11.00
2023-04-19T04:32:51.624Z,11.03
2023-04-19T04:35:21.090Z,11.11
2023-04-19T04:38:00.412Z,11.16
2023-04-19T04:40:29.549Z,11.24
2023-04-19T04:43:01.334Z,11.40
2023-04-19T04:45:29.993Z,11.57
2023-04-19T04:47:58.706Z,11.74
2023-04-19T04:50:28.053Z,11.87
2023-04-19T04:52:57.977Z,11.99
2023-04-19T04:55:31.280Z,12.10
2023-04-19T04:58:00.098Z,12.18
2023-04-19T05:00:43.532Z,12.25
2023-04-19T05:03:12.186Z,12.30
2023-04-19T05:05:49.431Z,12.37
2023-04-19T05:08:27.326Z,12.47
2023-04-19T05:10:59.301Z,12.56
2023-04-19T05:13:32.471Z,12.69
2023-04-19T05:16:01.168Z,12.77
2023-04-19T05:18:29.875Z,12.88
2023-04-19T05:20:58.382Z,13.05
2023-04-19T05:23:29.896Z,13.21
2023-04-19T05:25:59.082Z,13.37
2023-04-19T05:28:28.929Z,13.53
2023-04-19T05:31:06.568Z,13.70
2023-04-19T05:33:40.238Z,13.81
2023-04-19T05:36:12.516Z,13.86
2023-04-19T05:38:43.229Z,13.95
2023-04-19T05:41:12.480Z,14.06
2023-04-19T05:43:41.496Z,14.14
2023-04-19T05:46:10.701Z,14.20
2023-04-19T05:48:39.266Z,14.26
2023-04-19T05:51:35.795Z,14.31
2023-04-19T05:54:19.431Z,14.32
2023-04-19T05:56:49.924Z,14.32
2023-04-19T05:59:20.736Z,14.34
2023-04-19T06:01:49.524Z,14.38
2023-04-19T06:04:18.638Z,14.43
2023-04-19T06:06:49.401Z,14.52
2023-04-19T06:09:23.397Z,14.56
2023-04-19T06:11:54.887Z,14.62
2023-04-19T06:14:25.291Z,14.70
2023-04-19T06:16:54.620Z,14.77
2023-04-19T06:19:24.167Z,14.84
2023-04-19T06:21:52.544Z,14.88
2023-04-19T06:24:20.926Z,14.91
2023-04-19T06:26:50.081Z,14.98
2023-04-19T06:29:27.829Z,15.02
2023-04-19T06:31:59.467Z,15.10
2023-04-19T06:34:27.875Z,15.17
2023-04-19T06:36:59.491Z,15.22
2023-04-19T06:39:28.718Z,15.28
2023-04-19T06:41:57.937Z,15.30
2023-04-19T06:44:28.665Z,15.32
2023-04-19T06:46:59.947Z,15.32
2023-04-19T06:49:32.386Z,15.33
2023-04-19T06:52:04.362Z,15.33
2023-04-19T06:54:33.745Z,15.38
2023-04-19T06:57:03.420Z,15.45
2023-04-19T06:59:33.836Z,15.54
2023-04-19T07:02:03.067Z,15.60
2023-04-19T07:04:41.375Z,15.68
2023-04-19T07:07:13.365Z,15.74
2023-04-19T07:09:42.008Z,15.83
2023-04-19T07:12:10.989Z,15.96
2023-04-19T07:14:39.922Z,15.94
2023-04-19T07:17:08.519Z,16.04
2023-04-19T07:19:37.648Z,16.06
2023-04-19T07:22:07.106Z,16.08
2023-04-19T07:24:36.193Z,16.09
2023-04-19T07:27:05.100Z,16.16
2023-04-19T07:29:37.353Z,16.25
2023-04-19T07:32:07.798Z,16.33
2023-04-19T07:34:43.990Z,16.39
2023-04-19T07:37:12.882Z,16.43
2023-04-19T07:39:43.873Z,16.50
2023-04-19T07:42:12.219Z,16.58
2023-04-19T07:44:40.589Z,16.66
2023-04-19T07:47:08.927Z,16.72
2023-04-19T07:49:41.268Z,16.79
2023-04-19T07:52:09.559Z,16.88
2023-04-19T07:54:39.505Z,16.98
2023-04-19T07:57:07.957Z,17.04
2023-04-19T07:59:42.570Z,17.15
2023-04-19T08:02:12.737Z,17.28
2023-04-19T08:05:05.402Z,17.42
2023-04-19T08:07:59.065Z,17.56
2023-04-19T08:10:30.821Z,17.78
2023-04-19T08:13:06.231Z,17.95
2023-04-19T08:18:07.402Z,18.19
2023-04-19T08:20:37.005Z,18.19
2023-04-19T08:23:20.601Z,18.17
2023-04-19T08:25:51.576Z,18.23
2023-04-19T08:28:21.967Z,18.28
2023-04-19T08:30:50.683Z,18.32
2023-04-19T08:33:20.118Z,18.38
2023-04-19T08:35:50.837Z,18.44
2023-04-19T08:38:21.877Z,18.50
2023-04-19T08:40:52.438Z,18.56
2023-04-19T08:43:22.935Z,18.66
2023-04-19T08:45:52.728Z,18.75
2023-04-19T08:48:38.545Z,18.93
2023-04-19T08:51:10.452Z,19.10
2023-04-19T08:53:40.906Z,19.24
2023-04-19T08:56:21.161Z,19.26
2023-04-19T08:59:15.651Z,19.19
2023-04-19T09:01:48.071Z,19.25
2023-04-19T09:04:35.832Z,19.32
2023-04-19T09:07:09.325Z,19.40
2023-04-19T09:09:59.674Z,19.44
2023-04-19T09:12:36.131Z,19.56
2023-04-19T09:15:06.957Z,19.65
2023-04-19T09:17:41.269Z,19.74
2023-04-19T09:20:09.713Z,19.76
2023-04-19T09:22:38.103Z,19.78
2023-04-19T09:27:41.851Z,19.98
2023-04-19T09:30:17.629Z,20.02
2023-04-19T09:32:52.822Z,20.08
2023-04-19T09:35:22.066Z,20.22
2023-04-19T09:40:33.501Z,20.28
2023-04-19T09:43:33.056Z,20.21
2023-04-19T09:45:55.894Z,20.20
2023-04-19T09:48:32.956Z,20.28
2023-04-19T09:51:05.821Z,20.32
2023-04-19T09:53:37.036Z,20.33
2023-04-19T09:56:06.513Z,20.30
2023-04-19T09:58:46.856Z,20.16
2023-04-19T10:01:20.172Z,20.15
2023-04-19T10:03:49.793Z,20.26
2023-04-19T10:08:50.398Z,20.34
2023-04-19T10:11:26.095Z,20.31
2023-04-19T10:13:57.693Z,20.28
2023-04-19T10:16:26.514Z,20.26
2023-04-19T10:18:54.874Z,20.33
2023-04-19T10:21:23.312Z,20.34
2023-04-19T10:23:51.656Z,20.24
2023-04-19T10:26:19.888Z,20.05
2023-04-19T10:28:48.456Z,19.94
2023-04-19T10:31:20.569Z,19.91
2023-04-19T10:33:53.106Z,19.98
2023-04-19T10:36:22.692Z,20.04
2023-04-19T10:38:56.016Z,20.14
2023-04-19T10:41:24.428Z,20.37
2023-04-19T10:43:56.799Z,20.68
2023-04-19T10:46:32.103Z,20.98
2023-04-19T10:49:03.080Z,21.05
2023-04-19T10:51:39.171Z,21.03
2023-04-19T10:54:11.354Z,21.13
2023-04-19T10:56:42.006Z,21.26
2023-04-19T10:59:24.854Z,21.36
2023-04-19T11:01:58.286Z,21.36
2023-04-19T11:04:33.018Z,21.28
2023-04-19T11:07:03.628Z,21.28
2023-04-19T11:09:42.206Z,21.16
2023-04-19T11:12:17.309Z,21.01
2023-04-19T11:14:49.473Z,20.91
2023-04-19T11:17:25.602Z,20.87
2023-04-19T11:20:07.228Z,20.73
2023-04-19T11:22:39.956Z,20.59
2023-04-19T11:25:19.505Z,20.41
2023-04-19T11:27:53.507Z,20.23
2023-04-19T11:30:29.803Z,20.07
2023-04-19T11:32:58.565Z,20.10
2023-04-19T11:35:28.732Z,20.08
2023-04-19T11:37:59.360Z,19.98
2023-04-19T11:40:27.665Z,19.82
2023-04-19T11:43:04.973Z,19.73
2023-04-19T11:45:39.579Z,19.62
2023-04-19T11:48:17.603Z,19.54
2023-04-19T11:50:50.298Z,19.49
2023-04-19T11:53:21.336Z,19.41
2023-04-19T11:55:54.006Z,19.34
2023-04-19T11:58:40.242Z,19.28
2023-04-19T12:01:11.189Z,19.23
2023-04-19T12:03:47.660Z,19.22
2023-04-19T12:06:29.898Z,19.22
2023-04-19T12:09:00.811Z,19.09
2023-04-19T12:11:50.883Z,18.99
2023-04-19T12:14:23.199Z,18.89
2023-04-19T12:17:05.977Z,18.86
2023-04-19T12:19:42.597Z,18.81
2023-04-19T12:22:20.618Z,18.79
2023-04-19T12:24:53.827Z,18.80
2023-04-19T12:27:22.297Z,18.79
2023-04-19T12:29:50.714Z,18.78
2023-04-19T12:32:19.840Z,18.75
2023-04-19T12:34:49.255Z,18.74
2023-04-19T12:37:18.293Z,18.86
2023-04-19T12:39:46.633Z,18.94
2023-04-19T12:42:16.245Z,18.97
2023-04-19T12:44:44.660Z,19.05
2023-04-19T12:47:13.156Z,19.09
2023-04-19T12:49:42.465Z,19.08
2023-04-19T12:52:12.232Z,19.08
2023-04-19T12:54:42.311Z,19.05
2023-04-19T12:57:11.057Z,19.01
2023-04-19T12:59:42.018Z,19.01
2023-04-19T13:02:10.326Z,18.98
2023-04-19T13:04:38.754Z,18.92
2023-04-19T13:07:07.274Z,18.82
2023-04-19T13:09:41.444Z,18.74
2023-04-19T13:12:10.802Z,18.65
2023-04-19T13:14:39.083Z,18.50
2023-04-19T13:17:07.830Z,18.36
2023-04-19T13:19:38.744Z,18.25
2023-04-19T13:22:09.072Z,18.16
2023-04-19T13:24:38.881Z,18.06
2023-04-19T13:27:09.201Z,17.99
2023-04-19T13:29:37.906Z,17.98
2023-04-19T13:32:19.825Z,17.96
2023-04-19T13:34:48.572Z,17.93
2023-04-19T13:37:17.449Z,17.97
2023-04-19T13:39:46.979Z,18.00
2023-04-19T13:42:15.818Z,18.05
2023-04-19T13:44:45.220Z,18.12
2023-04-19T13:47:13.874Z,18.18
2023-04-19T13:49:46.014Z,18.24
2023-04-19T13:52:14.378Z,18.23
2023-04-19T13:54:43.408Z,18.19
2023-04-19T13:57:12.561Z,18.14
2023-04-19T13:59:41.146Z,18.12
2023-04-19T14:02:09.591Z,18.08
2023-04-19T14:04:38.110Z,18.01
2023-04-19T14:07:06.739Z,17.95
2023-04-19T14:09:35.169Z,17.89
2023-04-19T14:12:04.829Z,17.85
2023-04-19T14:14:33.752Z,17.76
2023-04-19T14:17:02.137Z,17.75
2023-04-19T14:19:31.001Z,17.69
2023-04-19T14:21:59.395Z,17.55
2023-04-19T14:24:27.880Z,17.50
2023-04-19T14:27:10.392Z,17.44
2023-04-19T14:29:40.136Z,17.41
2023-04-19T14:32:24.509Z,17.34
2023-04-19T14:34:56.338Z,17.30
2023-04-19T14:37:27.994Z,17.37
2023-04-19T14:39:56.373Z,17.31
2023-04-19T14:42:24.725Z,17.26
2023-04-19T14:44:55.914Z,17.26
2023-04-19T14:47:25.006Z,17.28
2023-04-19T14:50:01.038Z,17.34
2023-04-19T14:52:34.944Z,17.28
2023-04-19T14:55:13.984Z,17.24
2023-04-19T14:57:42.342Z,17.23
2023-04-19T15:00:15.604Z,17.20
2023-04-19T15:02:44.995Z,17.16
2023-04-19T15:05:17.560Z,17.06
2023-04-19T15:07:51.517Z,16.91
2023-04-19T15:10:21.343Z,16.82
2023-04-19T15:12:53.626Z,16.76
2023-04-19T15:15:23.237Z,16.69
2023-04-19T15:17:51.666Z,16.65
2023-04-19T15:20:20.664Z,16.58
2023-04-19T15:22:56.421Z,16.54
2023-04-19T15:25:36.147Z,16.50
2023-04-19T15:28:10.985Z,16.45
2023-04-19T15:30:40.819Z,16.43
2023-04-19T15:33:09.666Z,16.49
2023-04-19T15:35:39.936Z,16.59
2023-04-19T15:38:08.257Z,16.60
2023-04-19T15:40:38.741Z,16.57
2023-04-19T15:43:07.184Z,16.55
2023-04-19T15:45:36.567Z,16.62
2023-04-19T15:48:05.044Z,16.65
2023-04-19T15:50:37.059Z,16.69
2023-04-19T15:53:06.611Z,16.69
2023-04-19T15:55:36.442Z,16.69
2023-04-19T15:58:07.949Z,16.69
2023-04-19T16:00:38.690Z,16.68
2023-04-19T16:03:14.979Z,16.68
2023-04-19T16:05:43.656Z,16.69
2023-04-19T16:08:12.101Z,16.68
2023-04-19T16:10:40.463Z,16.67
2023-04-19T16:13:09.085Z,16.64
2023-04-19T16:15:37.252Z,16.63
2023-04-19T16:18:07.033Z,16.61
2023-04-19T16:20:35.557Z,16.59
2023-04-19T16:23:04.326Z,16.58
2023-04-19T16:25:35.693Z,16.62
2023-04-19T16:28:04.760Z,16.60
2023-04-19T16:30:35.593Z,16.56
2023-04-19T16:33:04.117Z,16.58
2023-04-19T16:35:49.195Z,16.52
2023-04-19T16:38:17.390Z,16.57
2023-04-19T16:40:48.810Z,16.62
2023-04-19T16:43:17.574Z,16.61
2023-04-19T16:45:49.726Z,16.59
2023-04-19T16:48:24.594Z,16.57
2023-04-19T16:50:54.243Z,16.52
2023-04-19T16:53:24.955Z,16.49
2023-04-19T16:55:54.493Z,16.44
2023-04-19T16:58:24.850Z,16.41
2023-04-19T17:00:55.913Z,16.38
2023-04-19T17:03:29.225Z,16.34
2023-04-19T17:06:00.632Z,16.30
2023-04-19T17:08:33.038Z,16.28
2023-04-19T17:11:04.248Z,16.27
2023-04-19T17:13:47.958Z,16.26
2023-04-19T17:16:18.039Z,16.24
2023-04-19T17:18:57.103Z,16.21
2023-04-19T17:21:28.007Z,16.19
2023-04-19T17:23:59.486Z,16.16
2023-04-19T17:26:28.494Z,16.15
2023-04-19T17:29:01.932Z,16.13
2023-04-19T17:31:32.723Z,16.10
2023-04-19T17:34:01.801Z,16.02
2023-04-19T17:36:32.472Z,15.93
2023-04-19T17:39:19.176Z,15.98
2023-04-19T17:41:50.364Z,15.96
2023-04-19T17:44:18.608Z,15.96
2023-04-19T17:46:47.085Z,15.97
2023-04-19T17:49:19.227Z,15.98
2023-04-19T17:51:49.543Z,16.00
2023-04-19T17:54:19.150Z,16.01
2023-04-19T17:56:49.188Z,16.02
2023-04-19T17:59:17.743Z,16.03
2023-04-19T18:01:47.149Z,16.07
2023-04-19T18:04:20.267Z,16.06
2023-04-19T18:06:48.894Z,16.07
2023-04-19T18:09:20.044Z,16.08
2023-04-19T18:11:48.282Z,16.08
2023-04-19T18:14:17.167Z,16.06
2023-04-19T18:16:45.853Z,16.01
2023-04-19T18:19:19.018Z,15.96
2023-04-19T18:21:47.925Z,15.97
2023-04-19T18:24:16.182Z,15.92
2023-04-19T18:26:50.307Z,15.87
2023-04-19T18:29:21.072Z,15.83
2023-04-19T18:31:49.377Z,15.76
2023-04-19T18:34:18.016Z,15.68
2023-04-19T18:36:47.679Z,15.62
2023-04-19T18:39:17.821Z,15.51
2023-04-19T18:41:46.524Z,15.42
2023-04-19T18:44:39.011Z,15.30
2023-04-19T18:47:04.011Z,15.17
2023-04-19T18:49:32.797Z,15.07
2023-04-19T18:52:01.390Z,14.98
2023-04-19T18:54:30.177Z,14.89
2023-04-19T18:57:21.707Z,14.78
2023-04-19T18:59:48.581Z,14.68
2023-04-19T19:02:17.011Z,14.58
2023-04-19T19:04:56.098Z,14.41
2023-04-19T19:07:36.441Z,14.37
2023-04-19T19:12:43.113Z,14.18
2023-04-19T19:15:11.382Z,14.09
2023-04-19T19:17:39.760Z,14.03
2023-04-19T19:20:10.587Z,13.96
2023-04-19T19:22:39.047Z,13.89
2023-04-19T19:25:07.737Z,13.84
2023-04-19T19:27:36.379Z,13.79
2023-04-19T19:30:08.727Z,13.73
2023-04-19T19:32:37.996Z,13.68
2023-04-19T19:35:09.726Z,13.64
2023-04-19T19:37:39.505Z,13.62
2023-04-19T19:40:11.155Z,13.59
2023-04-19T19:43:02.634Z,13.59
2023-04-19T19:45:32.398Z,13.58
2023-04-19T19:48:01.242Z,13.54
2023-04-19T19:53:02.004Z,13.65
2023-04-19T19:55:30.867Z,13.65
2023-04-19T20:00:45.108Z,13.67
2023-04-19T20:03:15.072Z,13.69
2023-04-19T20:05:44.393Z,13.70
2023-04-19T20:08:13.636Z,13.71
2023-04-19T20:10:42.892Z,13.72
2023-04-19T20:13:16.374Z,13.72
2023-04-19T20:15:47.496Z,13.73
2023-04-19T20:18:17.953Z,13.72
2023-04-19T20:20:46.316Z,13.70
2023-04-19T20:23:15.884Z,13.69
2023-04-19T20:25:44.265Z,13.69
2023-04-19T20:28:13.598Z,13.68
2023-04-19T20:30:42.013Z,13.70
2023-04-19T20:33:10.606Z,13.64
2023-04-19T20:35:39.283Z,13.62
2023-04-19T20:38:09.920Z,13.68
2023-04-19T20:40:38.230Z,13.67
2023-04-19T20:43:08.425Z,13.66
2023-04-19T20:45:37.152Z,13.60
2023-04-19T20:48:06.355Z,13.57
2023-04-19T20:50:35.591Z,13.54
2023-04-19T20:53:04.055Z,13.51
2023-04-19T20:55:32.440Z,13.49
2023-04-19T20:58:02.814Z,13.46
2023-04-19T21:00:31.601Z,13.44
2023-04-19T21:03:04.701Z,13.43
2023-04-19T21:05:35.454Z,13.42
2023-04-19T21:08:04.301Z,13.41
2023-04-19T21:10:32.994Z,13.36
2023-04-19T21:13:01.333Z,13.34
2023-04-19T21:15:29.692Z,13.37
2023-04-19T21:17:58.076Z,13.37
2023-04-19T21:20:26.473Z,13.38
2023-04-19T21:22:54.767Z,13.38
2023-04-19T21:25:23.157Z,13.38
2023-04-19T21:27:51.371Z,13.37
2023-04-19T21:30:20.873Z,13.37
2023-04-19T21:32:50.561Z,13.36
2023-04-19T21:35:19.858Z,13.37
2023-04-19T21:37:48.106Z,13.37
2023-04-19T21:40:16.306Z,13.37
2023-04-19T21:42:44.742Z,13.37
2023-04-19T21:45:12.977Z,13.35
2023-04-19T21:47:41.504Z,13.28
2023-04-19T21:50:10.913Z,13.31
2023-04-19T21:52:40.734Z,13.33
2023-04-19T21:55:09.237Z,13.33
2023-04-19T21:57:39.379Z,13.34
2023-04-19T22:00:12.136Z,13.33
2023-04-19T22:02:45.611Z,13.32
2023-04-19T22:05:13.933Z,13.31
2023-04-19T22:07:43.188Z,13.30
2023-04-19T22:10:13.931Z,13.29
2023-04-19T22:12:55.073Z,13.29
2023-04-19T22:15:27.073Z,13.28
2023-04-19T22:17:57.653Z,13.24
2023-04-19T22:20:29.512Z,13.18
2023-04-19T22:22:57.842Z,13.24
2023-04-19T22:25:26.523Z,13.26
2023-04-19T22:27:55.406Z,13.28
2023-04-19T22:30:23.641Z,13.27
2023-04-19T22:32:52.232Z,13.27
2023-04-19T22:35:22.713Z,13.26
2023-04-19T22:37:51.454Z,13.26
2023-04-19T22:40:20.050Z,13.24
2023-04-19T22:42:48.768Z,13.24
2023-04-19T22:45:17.020Z,13.26
2023-04-19T22:47:45.724Z,13.23
2023-04-19T22:50:14.021Z,13.23
2023-04-19T22:52:42.790Z,13.27
2023-04-19T22:55:11.298Z,13.27
2023-04-19T22:57:41.287Z,13.27
2023-04-19T23:00:11.309Z,13.27
2023-04-19T23:02:40.472Z,13.35
2023-04-19T23:05:09.213Z,13.33
2023-04-19T23:07:42.196Z,13.29
2023-04-19T23:10:12.587Z,13.27
2023-04-19T23:12:41.492Z,13.22
2023-04-19T23:15:11.289Z,13.29
2023-04-19T23:17:40.011Z,13.29
2023-04-19T23:20:11.981Z,13.29
2023-04-19T23:22:40.729Z,13.30
2023-04-19T23:25:09.555Z,13.31
2023-04-19T23:27:39.304Z,13.30
2023-04-19T23:30:09.225Z,13.29
2023-04-19T23:32:38.161Z,13.28
2023-04-19T23:35:06.586Z,13.26
2023-04-19T23:37:35.525Z,13.22
2023-04-19T23:40:10.613Z,13.21
2023-04-19T23:42:39.092Z,13.25
2023-04-19T23:45:07.693Z,13.26
2023-04-19T23:47:36.925Z,13.27
2023-04-19T23:50:05.484Z,13.28
2023-04-19T23:52:35.748Z,13.26
2023-04-19T23:55:04.796Z,13.26
2023-04-19T23:57:36.258Z,13.25
